Weather at Papago Army Heliport

Public forecast

Using degrees Fahrenheit for public forecast. Weather courtesy of forecast.io.

Closest aviation weather report (METAR) to Papago Army Heliport

Closest report is Phoenix Sky Harbor International Airport, 3.3 nm (6.1 km) SW. Retrieved 2020/10/21 11:51 UTC (35 minutes ago):

KPHX 211151Z 12010KT 10SM CLR 22/M01 A2979 RMK AO2 SLP069 T02171006 10250 20206 53003

Closest aviation forecast (TAF) to Papago Army Heliport

Closest forecast is Phoenix Sky Harbor International Airport, 3.3 nm (6.1 km) SW. Retrieved 2020/10/21 12:22 UTC (4 minutes ago):

TAF KPHX 211120Z 2112/2218 10005KT P6SM SKC FM212100 28005KT P6SM FEW250 FM220500 10005KT P6SM SKC